createdAt,value
2018-03-27T00:01:23.100Z,88.98
2018-03-27T00:04:26.448Z,89.13
2018-03-27T00:07:29.763Z,89.07
2018-03-27T00:10:33.100Z,88.89
2018-03-27T00:13:36.420Z,89.16
2018-03-27T00:16:39.746Z,89.58
2018-03-27T00:19:43.067Z,89.63
2018-03-27T00:22:46.395Z,89.71
2018-03-27T00:25:49.747Z,89.79
2018-03-27T00:29:10.499Z,89.70
2018-03-27T00:32:31.285Z,89.02
2018-03-27T00:35:52.178Z,89.07
2018-03-27T00:39:12.972Z,89.26
2018-03-27T00:45:56.531Z,89.75
2018-03-27T00:48:59.848Z,90.03
2018-03-27T00:52:03.189Z,90.20
2018-03-27T00:55:06.521Z,90.12
2018-03-27T00:58:09.847Z,90.02
2018-03-27T01:01:13.186Z,90.03
2018-03-27T01:04:17.291Z,90.05
2018-03-27T01:07:20.623Z,89.89
2018-03-27T01:10:23.959Z,89.86
2018-03-27T01:13:27.307Z,90.09
2018-03-27T01:16:30.656Z,90.23
2018-03-27T01:19:33.970Z,90.22
2018-03-27T01:22:37.329Z,89.88
2018-03-27T01:25:40.669Z,89.90
2018-03-27T01:28:44.007Z,90.15
2018-03-27T01:31:47.344Z,90.64
2018-03-27T01:34:50.670Z,90.76
2018-03-27T01:37:54.011Z,91.28
2018-03-27T01:40:57.339Z,91.59
2018-03-27T01:44:00.655Z,91.88
2018-03-27T01:47:03.993Z,92.19
2018-03-27T01:50:07.487Z,92.14
2018-03-27T01:53:10.814Z,92.24
2018-03-27T01:56:14.140Z,92.24
2018-03-27T01:59:17.455Z,91.90
2018-03-27T02:02:20.804Z,91.68
2018-03-27T02:05:24.124Z,92.03
2018-03-27T02:08:27.495Z,91.95
2018-03-27T02:11:36.272Z,91.98
2018-03-27T02:14:45.093Z,92.46
2018-03-27T02:17:53.823Z,92.80
2018-03-27T02:21:02.599Z,92.98
2018-03-27T02:24:11.319Z,93.08
2018-03-27T02:27:14.642Z,93.26
2018-03-27T02:30:17.976Z,93.25
2018-03-27T02:33:23.217Z,93.13
2018-03-27T02:36:26.547Z,92.88
2018-03-27T02:39:29.882Z,92.81
2018-03-27T02:42:33.228Z,92.97
2018-03-27T02:45:36.553Z,92.99
2018-03-27T02:48:39.927Z,93.27
2018-03-27T02:51:43.253Z,93.25
2018-03-27T02:54:46.594Z,92.93
2018-03-27T02:57:49.957Z,92.73
2018-03-27T03:00:53.289Z,92.78
2018-03-27T03:03:56.637Z,92.32
2018-03-27T03:06:59.988Z,92.34
2018-03-27T03:10:03.334Z,92.20
2018-03-27T03:13:06.679Z,91.82
2018-03-27T03:16:10.027Z,91.66
2018-03-27T03:19:13.357Z,91.73
2018-03-27T03:22:16.688Z,91.71
2018-03-27T03:25:20.034Z,91.67
2018-03-27T03:28:23.397Z,91.55
2018-03-27T03:31:26.751Z,91.10
2018-03-27T03:34:30.078Z,91.08
2018-03-27T03:37:33.440Z,91.20
2018-03-27T03:40:36.999Z,91.02
2018-03-27T03:43:40.373Z,90.74
2018-03-27T03:46:43.687Z,90.57
2018-03-27T03:49:47.028Z,90.72
2018-03-27T03:52:50.355Z,90.54
2018-03-27T03:55:53.699Z,90.34
2018-03-27T03:58:57.032Z,90.46
2018-03-27T04:02:00.373Z,90.40
2018-03-27T04:05:03.708Z,90.40
2018-03-27T04:08:07.039Z,90.17
2018-03-27T04:11:10.342Z,90.19
2018-03-27T04:14:14.454Z,89.95
2018-03-27T04:17:17.788Z,89.86
2018-03-27T04:20:21.119Z,90.07
2018-03-27T04:23:24.467Z,90.23
2018-03-27T04:26:27.803Z,90.20
2018-03-27T04:29:31.870Z,90.31
2018-03-27T04:32:35.214Z,90.31
2018-03-27T04:35:38.532Z,90.42
2018-03-27T04:38:41.872Z,90.57
2018-03-27T04:41:45.180Z,90.60
2018-03-27T04:44:48.519Z,90.64
2018-03-27T04:47:52.598Z,90.48
2018-03-27T04:50:55.931Z,90.60
2018-03-27T04:53:59.272Z,90.63
2018-03-27T04:57:02.599Z,90.46
2018-03-27T05:00:05.944Z,90.63
2018-03-27T05:03:10.020Z,91.00
2018-03-27T05:06:13.357Z,91.03
2018-03-27T05:09:16.709Z,90.99
2018-03-27T05:12:20.840Z,91.05
2018-03-27T05:15:24.173Z,91.14
2018-03-27T05:18:27.518Z,91.08
2018-03-27T05:21:30.846Z,91.08
2018-03-27T05:24:34.151Z,91.09
2018-03-27T05:27:37.480Z,90.97
2018-03-27T05:30:40.807Z,90.98
2018-03-27T05:33:44.143Z,90.88
2018-03-27T05:36:47.472Z,90.90
2018-03-27T05:39:50.811Z,90.95
2018-03-27T05:42:54.122Z,91.00
2018-03-27T05:45:57.456Z,91.02
2018-03-27T05:49:00.761Z,91.09
2018-03-27T05:52:04.095Z,91.17
2018-03-27T05:55:07.422Z,91.15
2018-03-27T05:58:10.752Z,91.16
2018-03-27T06:01:14.091Z,91.26
2018-03-27T06:04:18.183Z,91.29
2018-03-27T06:07:21.490Z,91.33
2018-03-27T06:10:25.591Z,91.46
2018-03-27T06:13:28.907Z,91.73
2018-03-27T06:16:32.993Z,91.76
2018-03-27T06:19:36.331Z,91.90
2018-03-27T06:22:39.643Z,92.26
2018-03-27T06:25:42.979Z,92.46
2018-03-27T06:28:46.302Z,92.59
2018-03-27T06:31:49.635Z,92.59
2018-03-27T06:34:52.974Z,92.46
2018-03-27T06:37:56.297Z,92.55
2018-03-27T06:41:00.391Z,92.60
2018-03-27T06:44:03.708Z,92.64
2018-03-27T06:47:07.040Z,92.80
2018-03-27T06:50:10.341Z,92.87
2018-03-27T06:53:13.683Z,92.79
2018-03-27T06:56:17.008Z,92.71
2018-03-27T06:59:20.355Z,92.69
2018-03-27T07:02:23.674Z,92.44
2018-03-27T07:05:27.059Z,92.35
2018-03-27T07:08:30.347Z,92.32
2018-03-27T07:11:33.681Z,92.23
2018-03-27T07:14:37.795Z,91.98
2018-03-27T07:17:41.971Z,91.80
2018-03-27T07:20:45.296Z,91.49
2018-03-27T07:23:48.637Z,91.46
2018-03-27T07:26:51.994Z,91.17
2018-03-27T07:29:55.336Z,91.09
2018-03-27T07:32:58.642Z,91.06
2018-03-27T07:36:01.987Z,91.07
2018-03-27T07:39:06.202Z,91.01
2018-03-27T07:42:09.527Z,90.58
2018-03-27T07:45:13.803Z,90.06
2018-03-27T07:48:17.106Z,90.22
2018-03-27T07:51:20.456Z,90.61
2018-03-27T07:54:23.750Z,90.56
2018-03-27T07:57:27.071Z,90.67
2018-03-27T08:00:31.138Z,90.50
2018-03-27T08:03:34.452Z,90.22
2018-03-27T08:06:37.786Z,90.14
2018-03-27T08:09:41.103Z,89.33
2018-03-27T08:12:44.427Z,89.16
2018-03-27T08:15:48.494Z,88.43
2018-03-27T08:18:51.839Z,88.47
2018-03-27T08:21:55.138Z,88.16
2018-03-27T08:24:58.466Z,87.95
2018-03-27T08:28:01.763Z,88.21
2018-03-27T08:31:05.094Z,88.64
2018-03-27T08:34:08.424Z,88.72
2018-03-27T08:37:11.743Z,87.63
2018-03-27T08:40:15.052Z,86.70
2018-03-27T08:43:18.376Z,86.27
2018-03-27T08:46:21.703Z,86.68
2018-03-27T08:49:25.762Z,86.71
2018-03-27T08:52:29.078Z,86.46
2018-03-27T08:55:32.382Z,85.76
2018-03-27T08:58:35.699Z,85.09
2018-03-27T09:01:39.767Z,84.69
2018-03-27T09:04:43.108Z,84.52
2018-03-27T09:07:47.171Z,84.44
2018-03-27T09:10:50.478Z,84.59
2018-03-27T09:13:53.774Z,84.20
2018-03-27T09:16:57.082Z,83.95
2018-03-27T09:20:00.373Z,84.24
2018-03-27T09:23:03.690Z,84.12
2018-03-27T09:26:06.979Z,84.18
2018-03-27T09:29:10.295Z,83.41
2018-03-27T09:32:14.359Z,82.22
2018-03-27T09:35:17.667Z,81.77
2018-03-27T09:38:20.971Z,82.95
2018-03-27T09:41:24.299Z,82.06
2018-03-27T09:44:28.356Z,82.49
2018-03-27T09:47:31.667Z,81.89
2018-03-27T09:50:34.995Z,81.89
2018-03-27T09:53:38.300Z,80.55
2018-03-27T09:56:42.379Z,78.63
2018-03-27T09:59:45.684Z,76.51
2018-03-27T10:02:48.999Z,77.65
2018-03-27T10:05:52.303Z,78.51
2018-03-27T10:08:56.395Z,79.12
2018-03-27T10:11:59.719Z,78.17
2018-03-27T10:15:03.803Z,79.01
2018-03-27T10:18:07.122Z,79.54
2018-03-27T10:21:11.200Z,78.55
2018-03-27T10:24:14.520Z,77.72
2018-03-27T10:27:17.816Z,77.74
2018-03-27T10:30:21.127Z,75.67
2018-03-27T10:33:25.203Z,75.49
2018-03-27T10:36:28.514Z,75.42
2018-03-27T10:39:31.826Z,76.48
2018-03-27T10:42:35.126Z,76.12
2018-03-27T10:45:38.443Z,75.91
2018-03-27T10:48:42.507Z,75.77
2018-03-27T10:51:45.822Z,76.53
2018-03-27T10:54:49.114Z,76.35
2018-03-27T10:57:52.455Z,75.32
2018-03-27T11:00:55.758Z,75.37
2018-03-27T11:03:59.096Z,76.95
2018-03-27T11:07:02.379Z,75.58
2018-03-27T11:10:05.752Z,76.16
2018-03-27T11:13:09.359Z,75.68
2018-03-27T11:16:12.654Z,75.26
2018-03-27T11:19:15.974Z,74.67
2018-03-27T11:22:19.272Z,73.66
2018-03-27T11:25:22.587Z,72.41
2018-03-27T11:28:25.894Z,71.36
2018-03-27T11:31:29.219Z,73.04
2018-03-27T11:34:32.523Z,73.15
2018-03-27T11:37:35.839Z,72.90
2018-03-27T11:40:39.146Z,72.40
2018-03-27T11:43:42.460Z,70.61
2018-03-27T11:46:45.763Z,71.18
2018-03-27T11:49:49.075Z,70.99
2018-03-27T11:52:53.154Z,71.11
2018-03-27T11:55:56.474Z,71.72
2018-03-27T11:58:59.790Z,68.45
2018-03-27T12:02:03.846Z,69.15
2018-03-27T12:05:07.159Z,69.57
2018-03-27T12:08:10.469Z,70.59
2018-03-27T12:11:13.786Z,71.49
2018-03-27T12:14:17.866Z,69.46
2018-03-27T12:17:21.165Z,70.78
2018-03-27T12:20:24.491Z,70.36
2018-03-27T12:23:28.567Z,70.33
2018-03-27T12:26:31.893Z,69.03
2018-03-27T12:29:35.189Z,69.12
2018-03-27T12:32:38.503Z,69.86
2018-03-27T12:35:42.586Z,69.30
2018-03-27T12:38:45.900Z,69.17
2018-03-27T12:41:49.202Z,68.75
2018-03-27T12:44:53.285Z,68.62
2018-03-27T12:47:56.599Z,66.39
2018-03-27T12:50:59.939Z,67.06
2018-03-27T12:54:03.248Z,66.30
2018-03-27T12:57:06.567Z,64.70
2018-03-27T13:00:09.874Z,65.46
2018-03-27T13:03:13.193Z,65.75
2018-03-27T13:06:17.278Z,67.51
2018-03-27T13:09:20.590Z,64.61
2018-03-27T13:12:23.903Z,66.38
2018-03-27T13:15:27.227Z,68.15
2018-03-27T13:18:30.531Z,68.31
2018-03-27T13:21:33.847Z,68.99
2018-03-27T13:24:37.168Z,68.88
2018-03-27T13:27:40.467Z,68.09
2018-03-27T13:30:43.782Z,67.87
2018-03-27T13:33:47.850Z,68.28
2018-03-27T13:36:51.167Z,67.92
2018-03-27T13:39:54.471Z,68.48
2018-03-27T13:42:57.787Z,67.37
2018-03-27T13:46:01.898Z,68.07
2018-03-27T13:49:05.215Z,68.33
2018-03-27T13:52:08.520Z,68.82
2018-03-27T13:55:11.839Z,68.97
2018-03-27T13:58:15.159Z,69.32
2018-03-27T14:01:18.490Z,70.06
2018-03-27T14:04:22.567Z,70.06
2018-03-27T14:07:25.882Z,71.06
2018-03-27T14:10:29.188Z,71.15
2018-03-27T14:13:32.502Z,70.79
2018-03-27T14:16:36.595Z,71.42
2018-03-27T14:19:39.894Z,70.84
2018-03-27T14:22:43.215Z,71.58
2018-03-27T14:25:46.531Z,71.34
2018-03-27T14:28:49.848Z,71.79
2018-03-27T14:31:53.155Z,72.49
2018-03-27T14:34:56.486Z,73.38
2018-03-27T14:38:00.555Z,73.66
2018-03-27T14:41:03.868Z,73.94
2018-03-27T14:44:07.192Z,74.52
2018-03-27T14:47:11.258Z,75.33
2018-03-27T14:50:14.579Z,75.39
2018-03-27T14:53:17.913Z,75.95
2018-03-27T14:56:21.238Z,76.04
2018-03-27T14:59:24.552Z,76.44
2018-03-27T15:02:27.882Z,77.10
2018-03-27T15:05:31.207Z,77.87
2018-03-27T15:08:34.506Z,78.22
2018-03-27T15:11:37.846Z,78.57
2018-03-27T15:14:41.154Z,78.85
2018-03-27T15:17:44.486Z,78.94
2018-03-27T15:20:47.819Z,78.49
2018-03-27T15:23:51.139Z,76.98
2018-03-27T15:26:54.486Z,77.26
2018-03-27T15:29:57.803Z,78.03
2018-03-27T15:33:01.127Z,77.96
2018-03-27T15:36:04.461Z,77.90
2018-03-27T15:39:08.536Z,77.66
2018-03-27T15:42:11.855Z,78.26
2018-03-27T15:45:15.947Z,78.93
2018-03-27T15:48:19.287Z,79.79
2018-03-27T15:51:23.363Z,80.40
2018-03-27T15:54:26.685Z,80.52
2018-03-27T15:57:30.770Z,80.73
2018-03-27T16:00:34.067Z,80.86
2018-03-27T16:03:37.395Z,80.87
2018-03-27T16:06:41.470Z,80.81
2018-03-27T16:09:44.788Z,80.55
2018-03-27T16:12:48.111Z,80.80
2018-03-27T16:15:52.189Z,81.20
2018-03-27T16:18:55.511Z,82.00
2018-03-27T16:21:59.602Z,82.50
2018-03-27T16:25:02.927Z,83.00
2018-03-27T16:28:07.011Z,83.26
2018-03-27T16:31:10.324Z,83.41
2018-03-27T16:34:13.701Z,83.52
2018-03-27T16:37:16.971Z,83.59
2018-03-27T16:40:20.312Z,83.39
2018-03-27T16:43:23.695Z,83.57
2018-03-27T16:46:27.002Z,83.88
2018-03-27T16:49:30.330Z,84.18
2018-03-27T16:52:34.459Z,84.54
2018-03-27T16:55:37.792Z,84.76
2018-03-27T16:58:41.110Z,85.08
2018-03-27T17:01:44.436Z,85.29
2018-03-27T17:04:47.755Z,85.41
2018-03-27T17:07:51.055Z,85.37
2018-03-27T17:10:54.366Z,85.35
2018-03-27T17:13:57.671Z,85.33
2018-03-27T17:17:01.020Z,85.45
2018-03-27T17:20:04.326Z,85.47
2018-03-27T17:23:07.654Z,85.40
2018-03-27T17:26:10.950Z,85.48
2018-03-27T17:29:14.267Z,85.43
2018-03-27T17:32:17.577Z,85.29
2018-03-27T17:35:20.958Z,85.37
2018-03-27T17:38:24.308Z,85.46
2018-03-27T17:41:27.644Z,85.39
2018-03-27T17:44:30.983Z,85.33
2018-03-27T17:47:35.937Z,85.35
2018-03-27T17:50:39.256Z,85.50
2018-03-27T17:53:43.110Z,85.51
2018-03-27T17:56:46.415Z,85.40
2018-03-27T17:59:49.754Z,85.48
2018-03-27T18:02:53.054Z,85.66
2018-03-27T18:05:56.383Z,85.68
2018-03-27T18:08:59.711Z,85.60
2018-03-27T18:12:03.030Z,85.76
2018-03-27T18:15:06.352Z,85.94
2018-03-27T18:18:09.678Z,86.38
2018-03-27T18:21:12.993Z,86.40
2018-03-27T18:24:16.374Z,86.64
2018-03-27T18:27:19.682Z,86.44
2018-03-27T18:30:23.779Z,86.56
2018-03-27T18:33:27.117Z,86.59
2018-03-27T18:36:30.439Z,86.66
2018-03-27T18:39:33.768Z,86.83
2018-03-27T18:42:37.094Z,86.94
2018-03-27T18:45:40.445Z,86.92
2018-03-27T18:48:43.756Z,87.05
2018-03-27T18:51:47.158Z,87.03
2018-03-27T18:54:50.446Z,86.95
2018-03-27T18:57:53.836Z,86.69
2018-03-27T19:00:57.134Z,86.81
2018-03-27T19:04:00.460Z,86.90
2018-03-27T19:07:03.802Z,86.87
2018-03-27T19:10:07.108Z,87.02
2018-03-27T19:13:11.068Z,87.17
2018-03-27T19:16:14.374Z,87.21
2018-03-27T19:19:17.699Z,87.02
2018-03-27T19:22:21.015Z,87.13
2018-03-27T19:25:24.386Z,87.11
2018-03-27T19:28:28.473Z,87.12
2018-03-27T19:31:32.561Z,87.20
2018-03-27T19:34:35.951Z,87.27
2018-03-27T19:37:39.287Z,87.51
2018-03-27T19:40:44.008Z,87.61
2018-03-27T19:43:47.349Z,87.76
2018-03-27T19:46:50.725Z,87.80
2018-03-27T19:49:54.027Z,87.89
2018-03-27T19:52:57.354Z,87.97
2018-03-27T19:56:00.658Z,88.14
2018-03-27T19:59:04.046Z,87.97
2018-03-27T20:02:07.323Z,88.03
2018-03-27T20:05:10.651Z,88.14
2018-03-27T20:08:13.976Z,88.19
2018-03-27T20:11:18.122Z,88.23
2018-03-27T20:14:21.447Z,88.05
2018-03-27T20:17:24.758Z,88.14
2018-03-27T20:20:28.141Z,88.21
2018-03-27T20:23:31.457Z,88.43
2018-03-27T20:26:34.789Z,88.44
2018-03-27T20:29:38.101Z,88.69
2018-03-27T20:32:41.434Z,88.76
2018-03-27T20:35:44.746Z,88.92
2018-03-27T20:38:48.151Z,88.98
2018-03-27T20:41:51.480Z,89.03
2018-03-27T20:44:54.815Z,89.02
2018-03-27T20:47:58.143Z,88.85
2018-03-27T20:51:01.531Z,88.96
2018-03-27T20:54:04.864Z,88.97
2018-03-27T20:57:08.199Z,88.82
2018-03-27T21:00:11.532Z,89.01
2018-03-27T21:03:14.855Z,89.01
2018-03-27T21:06:18.182Z,89.10
2018-03-27T21:09:21.512Z,88.89
2018-03-27T21:12:24.859Z,89.03
2018-03-27T21:15:28.174Z,89.01
2018-03-27T21:18:31.499Z,89.02
2018-03-27T21:21:34.833Z,89.12
2018-03-27T21:24:38.147Z,89.10
2018-03-27T21:27:41.478Z,89.00
2018-03-27T21:30:44.815Z,89.02
2018-03-27T21:33:48.159Z,88.79
2018-03-27T21:36:51.467Z,88.74
2018-03-27T21:39:54.802Z,88.91
2018-03-27T21:42:58.118Z,89.18
2018-03-27T21:46:01.454Z,89.22
2018-03-27T21:49:04.764Z,89.19
2018-03-27T21:52:08.103Z,89.13
2018-03-27T21:55:11.418Z,88.97
2018-03-27T21:58:14.749Z,88.94
2018-03-27T22:01:18.054Z,88.70
2018-03-27T22:04:21.387Z,89.01
2018-03-27T22:07:25.481Z,89.37
2018-03-27T22:10:28.790Z,89.55
2018-03-27T22:13:32.121Z,89.48
2018-03-27T22:16:35.457Z,89.52
2018-03-27T22:19:38.791Z,89.63
2018-03-27T22:22:42.116Z,89.76
2018-03-27T22:25:45.460Z,89.97
2018-03-27T22:28:48.785Z,90.05
2018-03-27T22:31:52.123Z,90.11
2018-03-27T22:34:55.455Z,90.12
2018-03-27T22:37:58.795Z,90.12
2018-03-27T22:41:02.099Z,90.04
2018-03-27T22:44:05.475Z,89.88
2018-03-27T22:47:08.763Z,89.61
2018-03-27T22:50:12.103Z,89.78
2018-03-27T22:53:15.445Z,89.81
2018-03-27T22:56:18.785Z,89.95
2018-03-27T22:59:22.119Z,90.11
2018-03-27T23:02:25.463Z,89.89
2018-03-27T23:05:28.784Z,89.91
2018-03-27T23:08:32.119Z,89.96
2018-03-27T23:11:35.461Z,89.74
2018-03-27T23:14:38.770Z,89.73
2018-03-27T23:17:42.115Z,89.85
2018-03-27T23:20:45.422Z,89.64
2018-03-27T23:23:48.768Z,89.70
2018-03-27T23:26:52.107Z,89.74
2018-03-27T23:29:55.443Z,89.59
2018-03-27T23:32:58.761Z,89.68
2018-03-27T23:36:02.119Z,89.59
2018-03-27T23:39:05.471Z,89.54
2018-03-27T23:42:08.799Z,89.75
2018-03-27T23:45:12.128Z,89.82
2018-03-27T23:48:15.469Z,89.96
2018-03-27T23:51:18.815Z,90.08
2018-03-27T23:54:22.151Z,90.22
2018-03-27T23:57:25.497Z,90.24
